createdAt,value
2022-11-28T00:00:00.819Z,9.55
2022-11-28T00:02:29.065Z,9.48
2022-11-28T00:04:57.334Z,11.30
2022-11-28T00:07:25.917Z,7.68
2022-11-28T00:09:54.350Z,6.72
2022-11-28T00:12:40.935Z,9.73
2022-11-28T00:15:11.812Z,10.88
2022-11-28T00:17:40.249Z,8.95
2022-11-28T00:20:08.809Z,10.68
2022-11-28T00:22:37.010Z,6.72
2022-11-28T00:25:05.363Z,7.78
2022-11-28T00:27:51.905Z,6.97
2022-11-28T00:30:20.242Z,9.98
2022-11-28T00:32:48.391Z,7.43
2022-11-28T00:35:35.057Z,8.05
2022-11-28T00:38:03.258Z,7.65
2022-11-28T00:40:31.466Z,5.15
2022-11-28T00:42:59.581Z,5.75
2022-11-28T00:45:28.023Z,10.93
2022-11-28T00:47:56.232Z,6.28
2022-11-28T00:50:24.635Z,9.40
2022-11-28T00:53:11.073Z,6.30
2022-11-28T00:55:58.725Z,5.13
2022-11-28T00:58:26.975Z,5.18
2022-11-28T01:00:55.098Z,7.45
2022-11-28T01:03:42.443Z,10.10
2022-11-28T01:06:49.051Z,8.25
2022-11-28T01:09:21.582Z,4.75
2022-11-28T01:11:51.374Z,9.30
2022-11-28T01:14:24.523Z,11.48
2022-11-28T01:17:11.101Z,7.22
2022-11-28T01:19:39.268Z,3.35
2022-11-28T01:22:07.494Z,5.47
2022-11-28T01:24:54.197Z,4.30
2022-11-28T01:27:40.897Z,2.50
2022-11-28T01:30:09.393Z,2.45
2022-11-28T01:32:37.572Z,3.35
2022-11-28T01:35:06.076Z,2.75
2022-11-28T01:37:34.112Z,1.35
2022-11-28T01:40:02.262Z,1.92
2022-11-28T01:42:31.005Z,2.53
2022-11-28T01:45:07.392Z,0.77
2022-11-28T01:47:36.066Z,3.65
2022-11-28T01:50:05.947Z,1.40
2022-11-28T01:52:35.475Z,2.00
2022-11-28T01:55:04.640Z,5.03
2022-11-28T01:57:33.192Z,2.38
2022-11-28T02:00:31.146Z,0.90
2022-11-28T02:03:28.082Z,0.90
2022-11-28T02:06:15.860Z,2.53
2022-11-28T02:08:44.044Z,3.03
2022-11-28T02:11:33.875Z,1.77
2022-11-28T02:14:20.968Z,3.95
2022-11-28T02:17:10.698Z,1.98
2022-11-28T02:19:57.533Z,4.40
2022-11-28T02:23:04.654Z,1.98
2022-11-28T02:25:54.565Z,3.15
2022-11-28T02:28:56.766Z,3.67
2022-11-28T02:31:38.397Z,4.13
2022-11-28T02:37:34.458Z,2.10
2022-11-28T02:40:19.715Z,4.95
2022-11-28T02:42:55.277Z,4.00
2022-11-28T02:46:04.970Z,1.77
2022-11-28T02:48:44.277Z,4.15
2022-11-28T02:51:38.886Z,2.53
2022-11-28T02:54:11.290Z,3.35
2022-11-28T02:56:39.710Z,5.88
2022-11-28T02:59:34.661Z,2.88
2022-11-28T03:02:29.498Z,1.85
2022-11-28T03:05:08.407Z,3.10
2022-11-28T03:07:47.136Z,4.30
2022-11-28T03:11:01.149Z,3.03
2022-11-28T03:13:54.005Z,1.25
2022-11-28T03:16:39.864Z,1.33
2022-11-28T03:19:32.619Z,2.33
2022-11-28T03:22:19.239Z,1.23
2022-11-28T03:24:51.250Z,2.47
2022-11-28T03:27:28.481Z,4.00
2022-11-28T03:30:04.043Z,1.63
2022-11-28T03:32:36.465Z,4.18
2022-11-28T03:35:14.422Z,1.98
2022-11-28T03:38:09.412Z,3.45
2022-11-28T03:40:44.147Z,2.25
2022-11-28T03:43:17.393Z,0.68
2022-11-28T03:45:52.401Z,2.92
2022-11-28T03:48:27.451Z,2.85
2022-11-28T03:51:04.962Z,1.67
2022-11-28T03:54:00.152Z,8.52
2022-11-28T03:56:58.341Z,1.48
2022-11-28T03:59:34.960Z,2.47
2022-11-28T04:02:20.254Z,4.10
2022-11-28T04:05:29.897Z,1.17
2022-11-28T04:08:22.286Z,2.05
2022-11-28T04:10:56.799Z,3.47
2022-11-28T04:13:33.458Z,0.88
2022-11-28T04:19:00.301Z,5.55
2022-11-28T04:21:33.885Z,1.67
2022-11-28T04:24:09.958Z,8.10
2022-11-28T04:26:44.182Z,15.18
2022-11-28T04:29:15.876Z,11.00
2022-11-28T04:32:04.013Z,8.55
2022-11-28T04:34:55.673Z,10.57
2022-11-28T04:37:27.880Z,18.52
2022-11-28T04:40:15.360Z,16.75
2022-11-28T04:42:52.832Z,10.38
2022-11-28T04:45:24.209Z,8.90
2022-11-28T04:47:52.449Z,14.68
2022-11-28T04:50:24.021Z,15.00
2022-11-28T04:52:56.566Z,9.15
2022-11-28T04:55:42.380Z,11.70
2022-11-28T04:58:25.174Z,14.55
2022-11-28T05:00:55.819Z,9.98
2022-11-28T05:03:28.408Z,11.73
2022-11-28T05:05:56.819Z,11.10
2022-11-28T05:08:25.566Z,13.55
2022-11-28T05:10:53.698Z,10.35
2022-11-28T05:13:21.848Z,9.95
2022-11-28T05:15:49.977Z,8.30
2022-11-28T05:18:36.630Z,7.97
2022-11-28T05:21:08.509Z,10.55
2022-11-28T05:23:38.439Z,5.22
2022-11-28T05:26:08.345Z,3.30
2022-11-28T05:28:36.712Z,4.97
2022-11-28T05:31:05.539Z,6.40
2022-11-28T05:33:33.783Z,2.22
2022-11-28T05:36:12.387Z,8.93
2022-11-28T05:38:42.137Z,5.60
2022-11-28T05:41:18.581Z,2.97
2022-11-28T05:43:46.696Z,5.22
2022-11-28T05:46:14.845Z,6.10
2022-11-28T05:48:42.929Z,7.07
2022-11-28T05:51:11.537Z,3.90
2022-11-28T05:53:39.758Z,2.97
2022-11-28T05:56:15.870Z,3.40
2022-11-28T05:58:44.396Z,6.10
2022-11-28T06:01:21.981Z,2.50
2022-11-28T06:03:50.095Z,2.88
2022-11-28T06:06:20.621Z,3.20
2022-11-28T06:08:50.124Z,1.50
2022-11-28T06:11:19.286Z,2.25
2022-11-28T06:13:48.461Z,2.88
2022-11-28T06:16:22.141Z,3.53
2022-11-28T06:18:55.042Z,1.02
2022-11-28T06:21:23.968Z,1.67
2022-11-28T06:23:52.258Z,1.05
2022-11-28T06:26:22.488Z,3.53
2022-11-28T06:28:50.808Z,2.25
2022-11-28T06:31:21.325Z,3.42
2022-11-28T06:36:35.577Z,3.50
2022-11-28T06:39:04.048Z,0.57
2022-11-28T06:41:32.118Z,3.05
2022-11-28T06:44:00.206Z,3.75
2022-11-28T06:46:28.343Z,2.72
2022-11-28T06:49:14.793Z,1.88
2022-11-28T06:51:43.247Z,1.77
2022-11-28T06:54:11.472Z,0.50
2022-11-28T06:56:40.835Z,4.47
2022-11-28T06:59:11.992Z,3.53
2022-11-28T07:01:40.057Z,2.97
2022-11-28T07:04:08.213Z,2.08
2022-11-28T07:06:36.262Z,5.32
2022-11-28T07:09:04.458Z,1.95
2022-11-28T07:11:33.143Z,1.35
2022-11-28T07:14:02.970Z,1.88
2022-11-28T07:16:32.729Z,4.10
2022-11-28T07:19:19.700Z,4.30
2022-11-28T07:21:47.639Z,5.45
2022-11-28T07:24:15.601Z,4.70
2022-11-28T07:26:43.483Z,2.92
2022-11-28T07:29:15.474Z,1.50
2022-11-28T07:32:03.277Z,5.80
2022-11-28T07:34:31.478Z,3.80
2022-11-28T07:36:59.489Z,5.68
2022-11-28T07:39:27.788Z,3.05
2022-11-28T07:44:40.918Z,7.18
2022-11-28T07:49:54.602Z,4.70
2022-11-28T07:55:08.405Z,4.30
2022-11-28T07:57:36.360Z,6.15
2022-11-28T08:00:04.990Z,7.03
2022-11-28T08:02:40.271Z,4.10
2022-11-28T08:05:08.671Z,2.53
2022-11-28T08:07:36.779Z,4.32
2022-11-28T08:10:06.696Z,1.67
2022-11-28T08:12:34.736Z,1.17
2022-11-28T08:15:02.792Z,2.35
2022-11-28T08:17:30.879Z,11.38
2022-11-28T08:19:58.857Z,2.97
2022-11-28T08:22:27.274Z,4.68
2022-11-28T08:24:55.168Z,3.63
2022-11-28T08:27:23.240Z,1.60
2022-11-28T08:29:53.525Z,4.03
2022-11-28T08:32:21.993Z,1.85
2022-11-28T08:34:49.959Z,1.58
2022-11-28T08:37:18.006Z,3.80
2022-11-28T08:39:45.922Z,5.03
2022-11-28T08:45:18.344Z,6.15
2022-11-28T08:47:46.347Z,4.90
2022-11-28T08:50:14.317Z,6.47
2022-11-28T08:52:42.349Z,8.80
2022-11-28T08:55:10.817Z,6.07
2022-11-28T08:57:38.883Z,4.63
2022-11-28T09:00:08.107Z,9.40
2022-11-28T09:02:36.118Z,10.73
2022-11-28T09:05:04.308Z,9.50
2022-11-28T09:07:32.464Z,8.45
2022-11-28T09:10:00.495Z,8.43
2022-11-28T09:12:28.539Z,9.25
2022-11-28T09:14:56.563Z,4.78
2022-11-28T09:17:43.075Z,9.48
2022-11-28T09:20:11.666Z,11.60
2022-11-28T09:22:39.624Z,8.95
2022-11-28T09:25:08.432Z,8.27
2022-11-28T09:27:36.503Z,18.40
2022-11-28T09:30:05.322Z,14.20
2022-11-28T09:32:33.584Z,14.40
2022-11-28T09:35:01.683Z,18.20
2022-11-28T09:37:29.979Z,15.60
2022-11-28T09:40:12.751Z,18.13
2022-11-28T09:42:44.517Z,13.80
2022-11-28T09:45:33.439Z,19.48
2022-11-28T09:48:33.802Z,13.25
2022-11-28T09:51:29.549Z,11.98
2022-11-28T09:54:22.043Z,13.55
2022-11-28T09:56:50.940Z,9.40
2022-11-28T09:59:26.470Z,9.13
2022-11-28T10:02:19.085Z,12.35
2022-11-28T10:05:05.732Z,17.98
2022-11-28T10:08:01.616Z,8.55
2022-11-28T10:10:38.380Z,14.80
2022-11-28T10:14:06.139Z,12.40
2022-11-28T10:16:43.263Z,7.75
2022-11-28T10:19:52.219Z,11.77
2022-11-28T10:22:16.723Z,12.15
2022-11-28T10:25:37.092Z,10.20
2022-11-28T10:28:20.059Z,10.15
2022-11-28T10:31:15.008Z,9.73
2022-11-28T10:33:55.397Z,9.23
2022-11-28T10:36:31.135Z,8.57
2022-11-28T10:39:09.896Z,18.80
2022-11-28T10:42:11.888Z,14.18
2022-11-28T10:44:57.096Z,9.95
2022-11-28T10:47:37.013Z,13.63
2022-11-28T10:50:20.192Z,12.38
2022-11-28T10:52:54.995Z,8.45
2022-11-28T10:55:46.103Z,12.02
2022-11-28T10:58:16.872Z,10.25
2022-11-28T11:01:04.045Z,6.88
2022-11-28T11:03:36.161Z,8.40
2022-11-28T11:06:04.612Z,9.65
2022-11-28T11:08:38.174Z,11.32
2022-11-28T11:11:25.794Z,11.73
2022-11-28T11:16:55.843Z,16.00
2022-11-28T11:19:25.117Z,9.77
2022-11-28T11:22:13.360Z,15.20
2022-11-28T11:24:41.465Z,14.88
2022-11-28T11:27:20.019Z,14.00
2022-11-28T11:29:51.463Z,11.55
2022-11-28T11:32:25.416Z,15.00
2022-11-28T11:34:55.772Z,13.55
2022-11-28T11:37:23.652Z,8.88
2022-11-28T11:39:53.614Z,10.75
2022-11-28T11:42:24.815Z,15.40
2022-11-28T11:44:53.432Z,15.32
2022-11-28T11:47:40.946Z,12.60
2022-11-28T11:50:21.697Z,11.65
2022-11-28T11:53:08.001Z,11.93
2022-11-28T11:55:59.438Z,10.65
2022-11-28T11:58:35.400Z,10.23
2022-11-28T12:01:04.242Z,8.38
2022-11-28T12:03:57.189Z,17.80
2022-11-28T12:06:30.950Z,15.55
2022-11-28T12:09:23.767Z,10.38
2022-11-28T12:11:56.961Z,10.40
2022-11-28T12:14:31.748Z,14.80
2022-11-28T12:17:40.403Z,9.65
2022-11-28T12:20:36.874Z,13.88
2022-11-28T12:23:41.412Z,9.93
2022-11-28T12:26:21.303Z,17.30
2022-11-28T12:29:25.268Z,12.07
2022-11-28T12:32:11.561Z,11.18
2022-11-28T12:34:57.900Z,12.60
2022-11-28T12:38:10.316Z,12.23
2022-11-28T12:40:55.652Z,10.82
2022-11-28T12:43:51.062Z,12.80
2022-11-28T12:46:40.349Z,10.60
2022-11-28T12:49:23.542Z,16.52
2022-11-28T12:52:15.723Z,8.77
2022-11-28T12:55:09.171Z,11.07
2022-11-28T12:58:31.391Z,9.73
2022-11-28T13:01:20.812Z,13.13
2022-11-28T13:04:16.633Z,11.85
2022-11-28T13:07:07.439Z,10.40
2022-11-28T13:09:38.911Z,10.93
2022-11-28T13:12:40.296Z,14.10
2022-11-28T13:15:21.704Z,9.02
2022-11-28T13:18:30.711Z,13.75
2022-11-28T13:21:08.964Z,11.27
2022-11-28T13:23:51.627Z,15.57
2022-11-28T13:26:22.901Z,9.25
2022-11-28T13:31:40.382Z,11.10
2022-11-28T13:34:16.250Z,14.50
2022-11-28T13:43:19.689Z,9.50
2022-11-28T13:45:48.257Z,11.82
2022-11-28T13:49:06.171Z,11.18
2022-11-28T13:51:30.938Z,11.65
2022-11-28T13:54:18.446Z,9.07
2022-11-28T13:59:35.130Z,12.70
2022-11-28T14:05:41.753Z,10.75
2022-11-28T14:08:28.707Z,11.60
2022-11-28T14:10:56.808Z,12.38
2022-11-28T14:13:30.930Z,7.95
2022-11-28T14:16:23.371Z,15.10
2022-11-28T14:18:57.951Z,10.48
2022-11-28T14:21:41.270Z,11.02
2022-11-28T14:24:55.004Z,10.20
2022-11-28T14:27:30.446Z,13.75
2022-11-28T14:30:00.489Z,13.73
2022-11-28T14:32:42.329Z,13.32
2022-11-28T14:35:51.059Z,11.27
2022-11-28T14:38:31.773Z,7.80
2022-11-28T14:41:12.055Z,10.98
2022-11-28T14:43:41.573Z,12.35
2022-11-28T14:46:15.980Z,11.88
2022-11-28T14:48:59.276Z,13.88
2022-11-28T14:51:48.670Z,10.98
2022-11-28T14:54:57.728Z,7.65
2022-11-28T14:57:29.361Z,12.13
2022-11-28T15:00:00.303Z,11.80
2022-11-28T15:02:47.105Z,10.52
2022-11-28T15:05:24.274Z,9.40
2022-11-28T15:08:16.217Z,16.90
2022-11-28T15:10:58.605Z,10.68
2022-11-28T15:13:52.339Z,11.20
2022-11-28T15:16:22.957Z,14.43
2022-11-28T15:18:58.739Z,9.07
2022-11-28T15:21:26.850Z,12.52
2022-11-28T15:23:56.000Z,16.52
2022-11-28T15:26:29.815Z,11.70
2022-11-28T15:29:19.904Z,15.30
2022-11-28T15:31:52.027Z,9.20
2022-11-28T15:34:31.189Z,14.68
2022-11-28T15:37:07.470Z,11.05
2022-11-28T15:39:53.937Z,14.45
2022-11-28T15:42:34.287Z,18.77
2022-11-28T15:45:24.392Z,17.52
2022-11-28T15:47:53.772Z,13.25
2022-11-28T15:50:25.439Z,12.90
2022-11-28T15:52:58.924Z,16.88
2022-11-28T15:55:30.908Z,12.02
2022-11-28T15:58:23.727Z,5.93
2022-11-28T16:01:00.286Z,9.52
2022-11-28T16:03:32.517Z,10.05
2022-11-28T16:06:01.270Z,14.20
2022-11-28T16:08:36.935Z,12.57
2022-11-28T16:11:07.776Z,8.43
2022-11-28T16:13:39.384Z,10.68
2022-11-28T16:16:33.492Z,7.75
2022-11-28T16:19:08.733Z,9.00
2022-11-28T16:21:50.147Z,10.15
2022-11-28T16:24:42.151Z,10.15
2022-11-28T16:27:33.389Z,11.80
2022-11-28T16:30:03.000Z,8.93
2022-11-28T16:32:40.256Z,12.30
2022-11-28T16:35:12.928Z,7.95
2022-11-28T16:37:41.018Z,7.22
2022-11-28T16:40:23.716Z,9.15
2022-11-28T16:42:56.808Z,8.68
2022-11-28T16:45:28.439Z,10.82
2022-11-28T16:48:19.421Z,9.82
2022-11-28T16:51:28.154Z,11.48
2022-11-28T16:54:00.477Z,13.73
2022-11-28T16:56:31.888Z,10.13
2022-11-28T16:59:16.848Z,11.95
2022-11-28T17:01:52.247Z,11.60
2022-11-28T17:04:28.662Z,12.80
2022-11-28T17:07:05.964Z,12.25
2022-11-28T17:09:34.235Z,23.48
2022-11-28T17:12:07.377Z,16.55
2022-11-28T17:14:35.666Z,17.83
2022-11-28T17:17:12.549Z,12.68
2022-11-28T17:19:41.144Z,17.83
2022-11-28T17:22:13.964Z,15.60
2022-11-28T17:24:42.760Z,11.77
2022-11-28T17:27:13.407Z,16.67
2022-11-28T17:29:41.763Z,12.95
2022-11-28T17:32:14.518Z,15.70
2022-11-28T17:35:04.215Z,14.20
2022-11-28T17:37:32.297Z,12.50
2022-11-28T17:40:18.975Z,15.25
2022-11-28T17:42:47.005Z,11.65
2022-11-28T17:45:15.505Z,9.68
2022-11-28T17:47:44.431Z,9.77
2022-11-28T17:50:12.540Z,10.50
2022-11-28T17:52:40.719Z,12.60
2022-11-28T17:55:08.953Z,14.65
2022-11-28T17:57:37.329Z,10.43
2022-11-28T18:00:10.245Z,16.65
2022-11-28T18:02:45.945Z,16.20
2022-11-28T18:05:14.453Z,19.02
2022-11-28T18:07:42.674Z,10.93
2022-11-28T18:10:12.826Z,20.40
2022-11-28T18:12:59.563Z,21.63
2022-11-28T18:15:28.187Z,14.25
2022-11-28T18:17:56.368Z,16.42
2022-11-28T18:20:28.811Z,19.92
2022-11-28T18:23:15.513Z,13.85
2022-11-28T18:25:44.706Z,9.90
2022-11-28T18:28:18.800Z,12.95
2022-11-28T18:30:48.097Z,14.10
2022-11-28T18:33:17.275Z,16.63
2022-11-28T18:35:45.429Z,16.65
2022-11-28T18:38:13.524Z,15.60
2022-11-28T18:40:42.096Z,15.52
2022-11-28T18:43:10.077Z,20.90
2022-11-28T18:45:38.204Z,14.38
2022-11-28T18:48:06.801Z,13.23
2022-11-28T18:50:35.372Z,11.75
2022-11-28T18:53:03.589Z,17.10
2022-11-28T18:55:31.768Z,12.23
2022-11-28T18:58:00.341Z,13.70
2022-11-28T19:00:28.814Z,11.60
2022-11-28T19:02:56.825Z,18.67
2022-11-28T19:05:24.998Z,16.05
2022-11-28T19:07:53.688Z,13.27
2022-11-28T19:10:21.869Z,19.65
2022-11-28T19:12:50.316Z,15.23
2022-11-28T19:18:04.050Z,13.82
2022-11-28T19:20:32.154Z,10.18
2022-11-28T19:23:00.114Z,13.80
2022-11-28T19:25:28.195Z,18.65
2022-11-28T19:27:56.926Z,17.08
2022-11-28T19:30:24.928Z,11.07
2022-11-28T19:32:53.026Z,21.45
2022-11-28T19:35:21.222Z,12.10
2022-11-28T19:37:49.316Z,18.60
2022-11-28T19:40:17.605Z,16.40
2022-11-28T19:43:04.289Z,18.10
2022-11-28T19:45:32.412Z,14.70
2022-11-28T19:48:01.957Z,15.63
2022-11-28T19:50:30.617Z,15.27
2022-11-28T19:52:58.642Z,10.70
2022-11-28T19:55:26.843Z,13.13
2022-11-28T19:57:54.940Z,15.30
2022-11-28T20:00:25.126Z,17.02
2022-11-28T20:02:53.227Z,13.18
2022-11-28T20:05:21.303Z,14.10
2022-11-28T20:07:52.180Z,19.40
2022-11-28T20:10:24.337Z,15.23
2022-11-28T20:12:54.477Z,9.98
2022-11-28T20:15:23.224Z,9.30
2022-11-28T20:17:51.232Z,4.78
2022-11-28T20:20:19.882Z,10.50
2022-11-28T20:22:48.746Z,12.25
2022-11-28T20:25:20.774Z,11.93
2022-11-28T20:27:51.306Z,9.82
2022-11-28T20:30:19.457Z,9.52
2022-11-28T20:32:48.175Z,12.05
2022-11-28T20:35:18.200Z,11.30
2022-11-28T20:37:46.353Z,17.33
2022-11-28T20:40:14.790Z,11.52
2022-11-28T20:42:42.913Z,13.43
2022-11-28T20:45:11.396Z,9.90
2022-11-28T20:47:39.529Z,10.45
2022-11-28T20:50:08.183Z,10.57
2022-11-28T20:52:36.143Z,13.30
2022-11-28T20:55:41.739Z,11.88
2022-11-28T20:58:09.793Z,16.30
2022-11-28T21:00:37.748Z,13.68
2022-11-28T21:03:05.795Z,17.42
2022-11-28T21:05:36.836Z,15.98
2022-11-28T21:08:05.146Z,15.95
2022-11-28T21:10:33.885Z,9.30
2022-11-28T21:13:01.969Z,13.60
2022-11-28T21:18:35.994Z,17.95
2022-11-28T21:21:09.684Z,17.20
2022-11-28T21:23:38.626Z,12.00
2022-11-28T21:26:09.858Z,18.73
2022-11-28T21:28:39.577Z,19.80
2022-11-28T21:33:57.018Z,13.40
2022-11-28T21:36:26.355Z,18.80
2022-11-28T21:38:58.632Z,15.85
2022-11-28T21:41:31.918Z,18.52
2022-11-28T21:44:01.034Z,18.85
2022-11-28T21:46:29.304Z,13.00
2022-11-28T21:49:16.300Z,14.98
2022-11-28T21:51:44.315Z,13.00
2022-11-28T21:54:12.725Z,20.65
2022-11-28T21:56:41.133Z,17.27
2022-11-28T21:59:09.353Z,23.70
2022-11-28T22:01:37.602Z,17.40
2022-11-28T22:04:06.630Z,20.08
2022-11-28T22:06:34.762Z,13.68
2022-11-28T22:11:53.954Z,16.23
2022-11-28T22:14:21.905Z,14.40
2022-11-28T22:16:50.026Z,16.55
2022-11-28T22:19:18.763Z,17.88
2022-11-28T22:21:52.316Z,16.00
2022-11-28T22:24:24.017Z,14.43
2022-11-28T22:26:53.287Z,13.02
2022-11-28T22:29:21.499Z,12.82
2022-11-28T22:31:50.074Z,11.35
2022-11-28T22:34:19.486Z,11.30
2022-11-28T22:36:47.580Z,6.82
2022-11-28T22:39:15.665Z,7.68
2022-11-28T22:41:43.756Z,7.57
2022-11-28T22:44:12.299Z,8.15
2022-11-28T22:46:40.361Z,9.15
2022-11-28T22:49:45.838Z,7.65
2022-11-28T22:52:13.889Z,11.93
2022-11-28T22:54:42.192Z,9.55
2022-11-28T22:57:10.371Z,7.28
2022-11-28T22:59:57.180Z,8.48
2022-11-28T23:02:25.371Z,8.00
2022-11-28T23:04:54.096Z,8.10
2022-11-28T23:07:22.283Z,6.90
2022-11-28T23:09:51.727Z,9.35
2022-11-28T23:12:19.867Z,8.80
2022-11-28T23:14:49.320Z,12.48
2022-11-28T23:17:17.314Z,15.30
2022-11-28T23:19:45.451Z,10.45
2022-11-28T23:22:13.769Z,11.80
2022-11-28T23:24:42.082Z,10.27
2022-11-28T23:27:10.526Z,8.75
2022-11-28T23:29:40.301Z,12.35
2022-11-28T23:32:08.798Z,9.85
2022-11-28T23:34:36.807Z,15.60
2022-11-28T23:37:04.807Z,13.80
2022-11-28T23:39:32.837Z,6.00
2022-11-28T23:42:05.085Z,11.05
2022-11-28T23:44:33.116Z,11.95
2022-11-28T23:47:01.223Z,7.85
2022-11-28T23:49:29.283Z,11.63
2022-11-28T23:51:57.386Z,7.75
2022-11-28T23:54:25.410Z,8.15
2022-11-28T23:56:53.377Z,9.75
2022-11-28T23:59:21.472Z,9.20
